sensor_id;sensor_type;location;lat;lon;timestamp;temperature;humidity
34815;DHT22;21030;53.912;15.214;2022-09-23T00:01:17;35.00;23.70
34815;DHT22;21030;53.912;15.214;2022-09-23T00:03:45;34.90;23.60
34815;DHT22;21030;53.912;15.214;2022-09-23T00:06:15;34.90;23.50
34815;DHT22;21030;53.912;15.214;2022-09-23T00:08:42;35.00;23.50
34815;DHT22;21030;53.912;15.214;2022-09-23T00:11:21;35.00;23.40
34815;DHT22;21030;53.912;15.214;2022-09-23T00:13:50;35.00;23.40
34815;DHT22;21030;53.912;15.214;2022-09-23T00:16:20;35.10;23.30
34815;DHT22;21030;53.912;15.214;2022-09-23T00:18:48;35.00;23.40
34815;DHT22;21030;53.912;15.214;2022-09-23T00:21:16;34.90;23.40
34815;DHT22;21030;53.912;15.214;2022-09-23T00:23:44;34.90;23.50
34815;DHT22;21030;53.912;15.214;2022-09-23T00:26:12;34.90;23.40
34815;DHT22;21030;53.912;15.214;2022-09-23T00:28:41;34.80;23.40
34815;DHT22;21030;53.912;15.214;2022-09-23T00:31:11;34.90;23.40
34815;DHT22;21030;53.912;15.214;2022-09-23T00:33:39;34.90;23.30
34815;DHT22;21030;53.912;15.214;2022-09-23T00:36:09;34.90;23.20
34815;DHT22;21030;53.912;15.214;2022-09-23T00:38:42;34.80;23.30
34815;DHT22;21030;53.912;15.214;2022-09-23T00:41:10;34.70;23.20
34815;DHT22;21030;53.912;15.214;2022-09-23T00:43:51;34.80;23.30
34815;DHT22;21030;53.912;15.214;2022-09-23T00:46:37;34.90;23.00
34815;DHT22;21030;53.912;15.214;2022-09-23T00:49:12;34.90;23.10
34815;DHT22;21030;53.912;15.214;2022-09-23T00:51:43;35.00;23.30
34815;DHT22;21030;53.912;15.214;2022-09-23T00:54:12;35.00;23.20
34815;DHT22;21030;53.912;15.214;2022-09-23T00:56:39;35.00;23.30
34815;DHT22;21030;53.912;15.214;2022-09-23T00:59:08;35.00;22.80
34815;DHT22;21030;53.912;15.214;2022-09-23T01:01:37;35.00;22.90
34815;DHT22;21030;53.912;15.214;2022-09-23T01:04:06;35.20;22.70
34815;DHT22;21030;53.912;15.214;2022-09-23T01:06:33;35.10;22.70
34815;DHT22;21030;53.912;15.214;2022-09-23T01:09:00;35.10;22.90
34815;DHT22;21030;53.912;15.214;2022-09-23T01:11:51;35.10;22.90
34815;DHT22;21030;53.912;15.214;2022-09-23T01:17:05;35.00;22.90
34815;DHT22;21030;53.912;15.214;2022-09-23T01:22:38;34.80;23.00
34815;DHT22;21030;53.912;15.214;2022-09-23T01:25:26;34.80;23.10
34815;DHT22;21030;53.912;15.214;2022-09-23T01:33:33;34.70;23.10
34815;DHT22;21030;53.912;15.214;2022-09-23T01:36:20;34.70;23.70
34815;DHT22;21030;53.912;15.214;2022-09-23T01:39:08;34.70;23.20
34815;DHT22;21030;53.912;15.214;2022-09-23T01:45:24;34.70;23.30
34815;DHT22;21030;53.912;15.214;2022-09-23T01:48:00;34.60;23.20
34815;DHT22;21030;53.912;15.214;2022-09-23T01:50:31;34.50;23.20
34815;DHT22;21030;53.912;15.214;2022-09-23T01:53:34;34.40;23.30
34815;DHT22;21030;53.912;15.214;2022-09-23T01:56:26;34.40;23.30
34815;DHT22;21030;53.912;15.214;2022-09-23T02:01:47;34.30;23.40
34815;DHT22;21030;53.912;15.214;2022-09-23T02:04:36;34.30;23.40
34815;DHT22;21030;53.912;15.214;2022-09-23T02:07:10;34.20;23.50
34815;DHT22;21030;53.912;15.214;2022-09-23T02:09:44;34.00;23.70
34815;DHT22;21030;53.912;15.214;2022-09-23T02:12:18;34.10;23.90
34815;DHT22;21030;53.912;15.214;2022-09-23T02:15:00;34.10;23.70
34815;DHT22;21030;53.912;15.214;2022-09-23T02:17:46;34.10;23.60
34815;DHT22;21030;53.912;15.214;2022-09-23T02:20:18;34.30;23.40
34815;DHT22;21030;53.912;15.214;2022-09-23T02:25:27;34.50;23.30
34815;DHT22;21030;53.912;15.214;2022-09-23T02:28:10;34.50;23.20
34815;DHT22;21030;53.912;15.214;2022-09-23T02:30:49;34.60;23.10
34815;DHT22;21030;53.912;15.214;2022-09-23T02:33:27;34.50;23.10
34815;DHT22;21030;53.912;15.214;2022-09-23T02:36:26;34.50;23.70
34815;DHT22;21030;53.912;15.214;2022-09-23T02:39:01;34.30;23.10
34815;DHT22;21030;53.912;15.214;2022-09-23T02:41:37;34.40;23.30
34815;DHT22;21030;53.912;15.214;2022-09-23T02:44:15;34.30;23.20
34815;DHT22;21030;53.912;15.214;2022-09-23T02:46:44;34.20;23.20
34815;DHT22;21030;53.912;15.214;2022-09-23T02:49:21;34.30;23.30
34815;DHT22;21030;53.912;15.214;2022-09-23T02:51:49;34.30;23.30
34815;DHT22;21030;53.912;15.214;2022-09-23T02:54:24;34.40;23.00
34815;DHT22;21030;53.912;15.214;2022-09-23T02:56:52;34.50;23.00
34815;DHT22;21030;53.912;15.214;2022-09-23T02:59:21;34.50;22.90
34815;DHT22;21030;53.912;15.214;2022-09-23T03:07:48;34.50;23.00
34815;DHT22;21030;53.912;15.214;2022-09-23T03:10:54;34.40;23.10
34815;DHT22;21030;53.912;15.214;2022-09-23T03:22:05;34.30;23.10
34815;DHT22;21030;53.912;15.214;2022-09-23T03:24:35;34.30;23.00
34815;DHT22;21030;53.912;15.214;2022-09-23T03:27:07;34.30;23.00
34815;DHT22;21030;53.912;15.214;2022-09-23T03:29:49;34.20;23.10
34815;DHT22;21030;53.912;15.214;2022-09-23T03:32:22;34.10;23.30
34815;DHT22;21030;53.912;15.214;2022-09-23T03:34:51;34.10;23.40
34815;DHT22;21030;53.912;15.214;2022-09-23T03:37:47;34.10;23.20
34815;DHT22;21030;53.912;15.214;2022-09-23T03:40:25;34.10;23.20
34815;DHT22;21030;53.912;15.214;2022-09-23T03:42:55;34.10;23.20
34815;DHT22;21030;53.912;15.214;2022-09-23T03:45:28;34.10;23.10
34815;DHT22;21030;53.912;15.214;2022-09-23T03:47:57;34.20;23.10
34815;DHT22;21030;53.912;15.214;2022-09-23T03:50:24;34.20;23.00
34815;DHT22;21030;53.912;15.214;2022-09-23T03:52:52;34.20;23.10
34815;DHT22;21030;53.912;15.214;2022-09-23T03:55:19;34.30;23.00
34815;DHT22;21030;53.912;15.214;2022-09-23T03:57:47;34.10;23.10
34815;DHT22;21030;53.912;15.214;2022-09-23T04:00:14;34.10;23.10
34815;DHT22;21030;53.912;15.214;2022-09-23T04:02:42;34.10;23.20
34815;DHT22;21030;53.912;15.214;2022-09-23T04:05:10;34.10;23.20
34815;DHT22;21030;53.912;15.214;2022-09-23T04:07:38;34.20;23.20
34815;DHT22;21030;53.912;15.214;2022-09-23T04:10:05;34.10;23.20
34815;DHT22;21030;53.912;15.214;2022-09-23T04:12:32;34.10;23.20
34815;DHT22;21030;53.912;15.214;2022-09-23T04:15:00;34.10;23.20
34815;DHT22;21030;53.912;15.214;2022-09-23T04:17:27;34.00;23.30
34815;DHT22;21030;53.912;15.214;2022-09-23T04:19:53;34.00;24.00
34815;DHT22;21030;53.912;15.214;2022-09-23T04:22:20;34.10;23.40
34815;DHT22;21030;53.912;15.214;2022-09-23T04:24:47;34.10;23.30
34815;DHT22;21030;53.912;15.214;2022-09-23T04:27:15;34.10;23.30
34815;DHT22;21030;53.912;15.214;2022-09-23T04:29:42;34.10;23.70
34815;DHT22;21030;53.912;15.214;2022-09-23T04:32:09;34.10;23.20
34815;DHT22;21030;53.912;15.214;2022-09-23T04:34:36;34.10;23.00
34815;DHT22;21030;53.912;15.214;2022-09-23T04:37:03;33.90;23.20
34815;DHT22;21030;53.912;15.214;2022-09-23T04:39:30;33.90;23.10
34815;DHT22;21030;53.912;15.214;2022-09-23T04:41:57;34.00;23.10
34815;DHT22;21030;53.912;15.214;2022-09-23T04:44:25;34.00;23.10
34815;DHT22;21030;53.912;15.214;2022-09-23T04:46:54;34.10;23.10
34815;DHT22;21030;53.912;15.214;2022-09-23T04:49:21;34.10;23.00
34815;DHT22;21030;53.912;15.214;2022-09-23T04:51:49;34.10;23.00
34815;DHT22;21030;53.912;15.214;2022-09-23T04:54:16;34.10;22.90
34815;DHT22;21030;53.912;15.214;2022-09-23T04:56:43;34.10;22.90
34815;DHT22;21030;53.912;15.214;2022-09-23T04:59:10;34.30;23.00
34815;DHT22;21030;53.912;15.214;2022-09-23T05:01:37;34.30;22.80
34815;DHT22;21030;53.912;15.214;2022-09-23T05:04:06;34.20;22.80
34815;DHT22;21030;53.912;15.214;2022-09-23T05:06:35;34.20;22.80
34815;DHT22;21030;53.912;15.214;2022-09-23T05:09:04;34.00;22.90
34815;DHT22;21030;53.912;15.214;2022-09-23T05:11:33;34.00;23.00
34815;DHT22;21030;53.912;15.214;2022-09-23T05:14:00;34.00;23.10
34815;DHT22;21030;53.912;15.214;2022-09-23T05:16:28;34.00;23.00
34815;DHT22;21030;53.912;15.214;2022-09-23T05:18:55;34.10;22.80
34815;DHT22;21030;53.912;15.214;2022-09-23T05:21:26;34.10;23.00
34815;DHT22;21030;53.912;15.214;2022-09-23T05:23:57;33.80;23.20
34815;DHT22;21030;53.912;15.214;2022-09-23T05:26:30;33.90;23.20
34815;DHT22;21030;53.912;15.214;2022-09-23T05:28:58;34.10;23.20
34815;DHT22;21030;53.912;15.214;2022-09-23T05:31:27;34.40;23.00
34815;DHT22;21030;53.912;15.214;2022-09-23T05:33:58;34.40;22.80
34815;DHT22;21030;53.912;15.214;2022-09-23T05:36:27;34.50;22.80
34815;DHT22;21030;53.912;15.214;2022-09-23T05:39:00;34.50;22.80
34815;DHT22;21030;53.912;15.214;2022-09-23T05:41:27;34.80;22.90
34815;DHT22;21030;53.912;15.214;2022-09-23T05:43:54;35.00;22.70
34815;DHT22;21030;53.912;15.214;2022-09-23T05:46:24;35.20;22.80
34815;DHT22;21030;53.912;15.214;2022-09-23T05:48:57;35.00;22.90
34815;DHT22;21030;53.912;15.214;2022-09-23T05:51:31;35.00;23.10
34815;DHT22;21030;53.912;15.214;2022-09-23T05:53:59;35.10;22.80
34815;DHT22;21030;53.912;15.214;2022-09-23T05:56:29;35.00;22.90
34815;DHT22;21030;53.912;15.214;2022-09-23T05:58:58;34.60;22.70
34815;DHT22;21030;53.912;15.214;2022-09-23T06:01:28;34.60;23.00
34815;DHT22;21030;53.912;15.214;2022-09-23T06:03:58;34.30;22.90
34815;DHT22;21030;53.912;15.214;2022-09-23T06:06:45;34.20;23.10
34815;DHT22;21030;53.912;15.214;2022-09-23T06:09:36;34.10;23.30
34815;DHT22;21030;53.912;15.214;2022-09-23T06:12:03;34.50;23.30
34815;DHT22;21030;53.912;15.214;2022-09-23T06:14:32;34.50;23.40
34815;DHT22;21030;53.912;15.214;2022-09-23T06:16:59;34.70;23.10
34815;DHT22;21030;53.912;15.214;2022-09-23T06:19:26;34.60;23.20
34815;DHT22;21030;53.912;15.214;2022-09-23T06:21:53;34.30;23.70
34815;DHT22;21030;53.912;15.214;2022-09-23T06:24:20;34.60;23.40
34815;DHT22;21030;53.912;15.214;2022-09-23T06:27:11;34.40;23.50
34815;DHT22;21030;53.912;15.214;2022-09-23T06:30:03;34.90;23.40
34815;DHT22;21030;53.912;15.214;2022-09-23T06:32:56;35.20;23.10
34815;DHT22;21030;53.912;15.214;2022-09-23T06:39:53;35.90;22.80
34815;DHT22;21030;53.912;15.214;2022-09-23T06:42:23;36.40;22.60
34815;DHT22;21030;53.912;15.214;2022-09-23T06:44:50;36.50;22.40
34815;DHT22;21030;53.912;15.214;2022-09-23T06:47:17;36.50;22.60
34815;DHT22;21030;53.912;15.214;2022-09-23T06:50:09;36.60;22.40
34815;DHT22;21030;53.912;15.214;2022-09-23T06:53:02;36.50;22.50
34815;DHT22;21030;53.912;15.214;2022-09-23T06:56:09;36.40;22.60
34815;DHT22;21030;53.912;15.214;2022-09-23T06:59:00;36.00;22.50
34815;DHT22;21030;53.912;15.214;2022-09-23T07:01:27;36.10;22.70
34815;DHT22;21030;53.912;15.214;2022-09-23T07:03:55;36.00;22.80
34815;DHT22;21030;53.912;15.214;2022-09-23T07:06:22;36.30;22.90
34815;DHT22;21030;53.912;15.214;2022-09-23T07:09:12;36.50;23.00
34815;DHT22;21030;53.912;15.214;2022-09-23T07:12:03;36.60;22.70
34815;DHT22;21030;53.912;15.214;2022-09-23T07:14:54;37.20;23.00
34815;DHT22;21030;53.912;15.214;2022-09-23T07:17:23;37.40;22.40
34815;DHT22;21030;53.912;15.214;2022-09-23T07:19:50;38.00;22.40
34815;DHT22;21030;53.912;15.214;2022-09-23T07:22:18;38.30;22.20
34815;DHT22;21030;53.912;15.214;2022-09-23T07:24:45;38.40;22.20
34815;DHT22;21030;53.912;15.214;2022-09-23T07:27:13;38.50;22.10
34815;DHT22;21030;53.912;15.214;2022-09-23T07:29:42;38.10;22.10
34815;DHT22;21030;53.912;15.214;2022-09-23T07:32:14;38.60;22.00
34815;DHT22;21030;53.912;15.214;2022-09-23T07:34:42;38.50;21.90
34815;DHT22;21030;53.912;15.214;2022-09-23T07:37:10;38.80;21.80
34815;DHT22;21030;53.912;15.214;2022-09-23T07:39:37;39.00;21.80
34815;DHT22;21030;53.912;15.214;2022-09-23T07:42:05;39.10;21.90
34815;DHT22;21030;53.912;15.214;2022-09-23T07:44:33;38.60;21.70
34815;DHT22;21030;53.912;15.214;2022-09-23T07:47:00;38.80;21.80
34815;DHT22;21030;53.912;15.214;2022-09-23T07:49:27;39.10;21.60
34815;DHT22;21030;53.912;15.214;2022-09-23T07:51:54;39.00;21.70
34815;DHT22;21030;53.912;15.214;2022-09-23T07:54:21;38.60;21.70
34815;DHT22;21030;53.912;15.214;2022-09-23T07:56:51;37.90;21.60
34815;DHT22;21030;53.912;15.214;2022-09-23T07:59:18;37.80;21.90
34815;DHT22;21030;53.912;15.214;2022-09-23T08:01:48;37.70;22.10
34815;DHT22;21030;53.912;15.214;2022-09-23T08:04:23;37.90;22.30
34815;DHT22;21030;53.912;15.214;2022-09-23T08:06:53;37.50;22.20
34815;DHT22;21030;53.912;15.214;2022-09-23T08:09:25;37.60;22.60
34815;DHT22;21030;53.912;15.214;2022-09-23T08:11:53;37.30;22.60
34815;DHT22;21030;53.912;15.214;2022-09-23T08:14:20;37.60;22.80
34815;DHT22;21030;53.912;15.214;2022-09-23T08:16:50;37.90;22.50
34815;DHT22;21030;53.912;15.214;2022-09-23T08:19:18;38.10;22.20
34815;DHT22;21030;53.912;15.214;2022-09-23T08:21:45;38.00;22.40
34815;DHT22;21030;53.912;15.214;2022-09-23T08:24:18;38.30;22.10
34815;DHT22;21030;53.912;15.214;2022-09-23T08:26:46;38.30;22.10
34815;DHT22;21030;53.912;15.214;2022-09-23T08:29:15;37.90;22.10
34815;DHT22;21030;53.912;15.214;2022-09-23T08:31:43;38.40;22.10
34815;DHT22;21030;53.912;15.214;2022-09-23T08:34:10;38.90;21.90
34815;DHT22;21030;53.912;15.214;2022-09-23T08:36:37;39.20;21.80
34815;DHT22;21030;53.912;15.214;2022-09-23T08:39:05;39.50;21.30
34815;DHT22;21030;53.912;15.214;2022-09-23T08:44:26;39.30;21.10
34815;DHT22;21030;53.912;15.214;2022-09-23T08:47:21;39.40;21.00
34815;DHT22;21030;53.912;15.214;2022-09-23T08:50:05;39.90;20.90
34815;DHT22;21030;53.912;15.214;2022-09-23T08:55:08;39.20;20.60
34815;DHT22;21030;53.912;15.214;2022-09-23T09:03:39;40.80;20.10
34815;DHT22;21030;53.912;15.214;2022-09-23T09:06:20;41.00;19.90
34815;DHT22;21030;53.912;15.214;2022-09-23T09:08:56;41.50;20.10
34815;DHT22;21030;53.912;15.214;2022-09-23T09:11:32;40.60;19.30
34815;DHT22;21030;53.912;15.214;2022-09-23T09:16:59;40.70;19.30
34815;DHT22;21030;53.912;15.214;2022-09-23T09:19:38;41.20;19.60
34815;DHT22;21030;53.912;15.214;2022-09-23T09:22:12;41.30;20.00
34815;DHT22;21030;53.912;15.214;2022-09-23T09:24:43;42.00;19.20
34815;DHT22;21030;53.912;15.214;2022-09-23T09:27:12;42.10;18.30
34815;DHT22;21030;53.912;15.214;2022-09-23T09:29:50;41.80;17.80
34815;DHT22;21030;53.912;15.214;2022-09-23T09:32:57;42.10;18.10
34815;DHT22;21030;53.912;15.214;2022-09-23T09:35:37;43.20;18.60
34815;DHT22;21030;53.912;15.214;2022-09-23T09:38:06;43.50;17.80
34815;DHT22;21030;53.912;15.214;2022-09-23T09:40:43;43.70;17.90
34815;DHT22;21030;53.912;15.214;2022-09-23T09:43:17;44.20;17.20
34815;DHT22;21030;53.912;15.214;2022-09-23T09:48:35;44.80;16.70
34815;DHT22;21030;53.912;15.214;2022-09-23T09:51:23;44.50;16.90
34815;DHT22;21030;53.912;15.214;2022-09-23T09:53:50;43.90;17.10
34815;DHT22;21030;53.912;15.214;2022-09-23T09:56:24;43.40;17.10
34815;DHT22;21030;53.912;15.214;2022-09-23T09:59:08;43.20;17.30
34815;DHT22;21030;53.912;15.214;2022-09-23T10:01:37;42.60;17.00
34815;DHT22;21030;53.912;15.214;2022-09-23T10:04:30;42.70;17.50
34815;DHT22;21030;53.912;15.214;2022-09-23T10:07:14;43.20;17.60
34815;DHT22;21030;53.912;15.214;2022-09-23T10:09:49;42.80;17.60
34815;DHT22;21030;53.912;15.214;2022-09-23T10:12:23;43.00;17.60
34815;DHT22;21030;53.912;15.214;2022-09-23T10:14:55;42.50;16.70
34815;DHT22;21030;53.912;15.214;2022-09-23T10:17:32;41.90;17.00
34815;DHT22;21030;53.912;15.214;2022-09-23T10:20:04;41.30;17.10
34815;DHT22;21030;53.912;15.214;2022-09-23T10:22:36;41.40;17.80
34815;DHT22;21030;53.912;15.214;2022-09-23T10:25:14;41.00;17.50
34815;DHT22;21030;53.912;15.214;2022-09-23T10:27:42;41.30;17.60
34815;DHT22;21030;53.912;15.214;2022-09-23T10:30:21;41.40;17.70
34815;DHT22;21030;53.912;15.214;2022-09-23T10:32:50;41.90;17.90
34815;DHT22;21030;53.912;15.214;2022-09-23T10:35:20;42.40;17.60
34815;DHT22;21030;53.912;15.214;2022-09-23T10:37:51;42.90;17.00
34815;DHT22;21030;53.912;15.214;2022-09-23T10:40:39;43.00;16.80
34815;DHT22;21030;53.912;15.214;2022-09-23T10:54:57;43.10;17.30
34815;DHT22;21030;53.912;15.214;2022-09-23T11:03:18;42.60;17.40
34815;DHT22;21030;53.912;15.214;2022-09-23T11:36:49;38.50;19.50
34815;DHT22;21030;53.912;15.214;2022-09-23T11:40:04;39.20;19.60
34815;DHT22;21030;53.912;15.214;2022-09-23T11:42:54;38.60;19.70
34815;DHT22;21030;53.912;15.214;2022-09-23T11:45:30;39.00;19.60
34815;DHT22;21030;53.912;15.214;2022-09-23T11:48:17;39.70;19.30
34815;DHT22;21030;53.912;15.214;2022-09-23T11:50:54;40.10;18.30
34815;DHT22;21030;53.912;15.214;2022-09-23T11:56:33;40.30;17.40
34815;DHT22;21030;53.912;15.214;2022-09-23T12:05:11;39.60;17.40
34815;DHT22;21030;53.912;15.214;2022-09-23T12:07:58;39.40;17.60
34815;DHT22;21030;53.912;15.214;2022-09-23T12:10:47;39.30;18.00
34815;DHT22;21030;53.912;15.214;2022-09-23T12:13:25;39.50;18.10
34815;DHT22;21030;53.912;15.214;2022-09-23T12:22:02;41.20;17.60
34815;DHT22;21030;53.912;15.214;2022-09-23T12:30:10;38.30;18.00
34815;DHT22;21030;53.912;15.214;2022-09-23T12:32:39;38.40;18.40
34815;DHT22;21030;53.912;15.214;2022-09-23T12:35:29;38.40;18.80
34815;DHT22;21030;53.912;15.214;2022-09-23T12:37:59;38.40;18.80
34815;DHT22;21030;53.912;15.214;2022-09-23T12:40:34;38.50;19.00
34815;DHT22;21030;53.912;15.214;2022-09-23T12:43:32;38.80;19.00
34815;DHT22;21030;53.912;15.214;2022-09-23T12:46:20;38.90;18.50
34815;DHT22;21030;53.912;15.214;2022-09-23T12:49:44;39.40;18.60
34815;DHT22;21030;53.912;15.214;2022-09-23T12:54:47;38.70;18.10
34815;DHT22;21030;53.912;15.214;2022-09-23T13:02:40;40.20;18.10
34815;DHT22;21030;53.912;15.214;2022-09-23T13:08:05;38.90;17.40
34815;DHT22;21030;53.912;15.214;2022-09-23T13:10:43;39.10;17.50
34815;DHT22;21030;53.912;15.214;2022-09-23T13:13:36;38.30;17.80
34815;DHT22;21030;53.912;15.214;2022-09-23T13:16:28;39.30;18.00
34815;DHT22;21030;53.912;15.214;2022-09-23T13:26:54;38.70;17.40
34815;DHT22;21030;53.912;15.214;2022-09-23T13:29:28;38.10;17.60
34815;DHT22;21030;53.912;15.214;2022-09-23T13:32:03;38.00;17.70
34815;DHT22;21030;53.912;15.214;2022-09-23T13:34:33;38.00;18.10
34815;DHT22;21030;53.912;15.214;2022-09-23T13:37:43;38.70;18.10
34815;DHT22;21030;53.912;15.214;2022-09-23T13:40:25;39.00;17.90
34815;DHT22;21030;53.912;15.214;2022-09-23T13:42:57;39.10;18.30
34815;DHT22;21030;53.912;15.214;2022-09-23T13:45:27;39.70;18.30
34815;DHT22;21030;53.912;15.214;2022-09-23T13:48:10;39.40;17.50
34815;DHT22;21030;53.912;15.214;2022-09-23T13:50:38;39.30;17.80
34815;DHT22;21030;53.912;15.214;2022-09-23T13:53:11;39.70;17.80
34815;DHT22;21030;53.912;15.214;2022-09-23T13:55:42;40.00;17.50
34815;DHT22;21030;53.912;15.214;2022-09-23T14:00:45;40.60;17.20
34815;DHT22;21030;53.912;15.214;2022-09-23T14:03:34;40.90;17.10
34815;DHT22;21030;53.912;15.214;2022-09-23T14:06:11;40.90;16.80
34815;DHT22;21030;53.912;15.214;2022-09-23T14:08:48;40.60;17.00
34815;DHT22;21030;53.912;15.214;2022-09-23T14:11:18;40.40;17.20
34815;DHT22;21030;53.912;15.214;2022-09-23T14:13:48;41.10;17.60
34815;DHT22;21030;53.912;15.214;2022-09-23T14:16:20;40.90;17.40
34815;DHT22;21030;53.912;15.214;2022-09-23T14:18:51;40.90;17.20
34815;DHT22;21030;53.912;15.214;2022-09-23T14:21:35;40.50;17.50
34815;DHT22;21030;53.912;15.214;2022-09-23T14:26:36;40.90;17.40
34815;DHT22;21030;53.912;15.214;2022-09-23T14:29:09;40.80;17.30
34815;DHT22;21030;53.912;15.214;2022-09-23T14:31:38;40.20;17.70
34815;DHT22;21030;53.912;15.214;2022-09-23T14:39:59;37.90;19.10
34815;DHT22;21030;53.912;15.214;2022-09-23T14:42:28;37.70;19.30
34815;DHT22;21030;53.912;15.214;2022-09-23T14:44:58;37.80;19.30
34815;DHT22;21030;53.912;15.214;2022-09-23T14:47:25;38.40;19.40
34815;DHT22;21030;53.912;15.214;2022-09-23T14:49:52;39.10;19.20
34815;DHT22;21030;53.912;15.214;2022-09-23T14:52:49;39.60;18.80
34815;DHT22;21030;53.912;15.214;2022-09-23T14:55:17;39.70;18.50
34815;DHT22;21030;53.912;15.214;2022-09-23T14:57:44;39.30;18.80
34815;DHT22;21030;53.912;15.214;2022-09-23T15:00:15;39.20;18.90
34815;DHT22;21030;53.912;15.214;2022-09-23T15:03:12;39.20;19.00
34815;DHT22;21030;53.912;15.214;2022-09-23T15:05:44;39.60;19.10
34815;DHT22;21030;53.912;15.214;2022-09-23T15:08:21;40.00;19.00
34815;DHT22;21030;53.912;15.214;2022-09-23T15:10:49;39.70;18.60
34815;DHT22;21030;53.912;15.214;2022-09-23T15:13:27;39.80;19.20
34815;DHT22;21030;53.912;15.214;2022-09-23T15:15:56;40.20;19.40
34815;DHT22;21030;53.912;15.214;2022-09-23T15:18:25;40.30;19.20
34815;DHT22;21030;53.912;15.214;2022-09-23T15:21:01;40.20;19.20
34815;DHT22;21030;53.912;15.214;2022-09-23T15:23:42;40.30;19.30
34815;DHT22;21030;53.912;15.214;2022-09-23T15:26:13;40.20;19.30
34815;DHT22;21030;53.912;15.214;2022-09-23T15:28:41;40.10;19.30
34815;DHT22;21030;53.912;15.214;2022-09-23T15:31:17;39.70;19.10
34815;DHT22;21030;53.912;15.214;2022-09-23T15:33:46;39.40;19.30
34815;DHT22;21030;53.912;15.214;2022-09-23T15:36:17;39.30;19.70
34815;DHT22;21030;53.912;15.214;2022-09-23T15:38:46;39.30;19.80
34815;DHT22;21030;53.912;15.214;2022-09-23T15:41:14;39.10;19.70
34815;DHT22;21030;53.912;15.214;2022-09-23T15:43:41;39.20;20.00
34815;DHT22;21030;53.912;15.214;2022-09-23T15:46:27;39.40;19.90
34815;DHT22;21030;53.912;15.214;2022-09-23T15:48:58;39.50;20.00
34815;DHT22;21030;53.912;15.214;2022-09-23T15:51:27;39.60;20.00
34815;DHT22;21030;53.912;15.214;2022-09-23T15:53:54;39.60;20.00
34815;DHT22;21030;53.912;15.214;2022-09-23T15:56:23;39.70;20.00
34815;DHT22;21030;53.912;15.214;2022-09-23T15:58:50;39.80;20.00
34815;DHT22;21030;53.912;15.214;2022-09-23T16:01:26;39.90;19.90
34815;DHT22;21030;53.912;15.214;2022-09-23T16:03:54;39.80;19.80
34815;DHT22;21030;53.912;15.214;2022-09-23T16:06:21;39.90;19.90
34815;DHT22;21030;53.912;15.214;2022-09-23T16:08:50;39.90;20.10
34815;DHT22;21030;53.912;15.214;2022-09-23T16:11:22;39.70;19.70
34815;DHT22;21030;53.912;15.214;2022-09-23T16:13:53;39.60;19.80
34815;DHT22;21030;53.912;15.214;2022-09-23T16:16:20;39.60;19.90
34815;DHT22;21030;53.912;15.214;2022-09-23T16:18:47;39.50;19.90
34815;DHT22;21030;53.912;15.214;2022-09-23T16:21:18;39.40;20.60
34815;DHT22;21030;53.912;15.214;2022-09-23T16:23:47;39.30;20.10
34815;DHT22;21030;53.912;15.214;2022-09-23T16:26:28;39.30;20.40
34815;DHT22;21030;53.912;15.214;2022-09-23T16:28:57;39.20;20.60
34815;DHT22;21030;53.912;15.214;2022-09-23T16:31:25;39.00;20.70
34815;DHT22;21030;53.912;15.214;2022-09-23T16:33:55;39.00;20.60
34815;DHT22;21030;53.912;15.214;2022-09-23T16:36:38;38.90;20.60
34815;DHT22;21030;53.912;15.214;2022-09-23T16:39:09;38.90;20.80
34815;DHT22;21030;53.912;15.214;2022-09-23T16:41:37;38.90;21.10
34815;DHT22;21030;53.912;15.214;2022-09-23T16:44:05;38.90;21.20
34815;DHT22;21030;53.912;15.214;2022-09-23T16:46:34;38.80;21.10
34815;DHT22;21030;53.912;15.214;2022-09-23T16:49:01;38.60;21.10
34815;DHT22;21030;53.912;15.214;2022-09-23T16:51:31;38.70;21.30
34815;DHT22;21030;53.912;15.214;2022-09-23T16:54:06;38.70;21.10
34815;DHT22;21030;53.912;15.214;2022-09-23T16:56:38;38.60;21.00
34815;DHT22;21030;53.912;15.214;2022-09-23T16:59:13;38.60;21.40
34815;DHT22;21030;53.912;15.214;2022-09-23T17:01:41;38.60;21.70
34815;DHT22;21030;53.912;15.214;2022-09-23T17:04:28;38.60;21.90
34815;DHT22;21030;53.912;15.214;2022-09-23T17:06:55;38.50;22.00
34815;DHT22;21030;53.912;15.214;2022-09-23T17:09:27;38.60;22.10
34815;DHT22;21030;53.912;15.214;2022-09-23T17:12:25;38.50;22.10
34815;DHT22;21030;53.912;15.214;2022-09-23T17:14:53;38.50;22.10
34815;DHT22;21030;53.912;15.214;2022-09-23T17:17:21;38.40;22.10
34815;DHT22;21030;53.912;15.214;2022-09-23T17:19:51;38.40;22.10
34815;DHT22;21030;53.912;15.214;2022-09-23T17:22:18;38.40;22.10
34815;DHT22;21030;53.912;15.214;2022-09-23T17:24:45;38.40;22.10
34815;DHT22;21030;53.912;15.214;2022-09-23T17:27:12;38.50;22.30
34815;DHT22;21030;53.912;15.214;2022-09-23T17:29:43;38.40;22.30
34815;DHT22;21030;53.912;15.214;2022-09-23T17:32:15;38.30;22.30
34815;DHT22;21030;53.912;15.214;2022-09-23T17:34:43;38.30;22.40
34815;DHT22;21030;53.912;15.214;2022-09-23T17:37:10;38.30;22.40
34815;DHT22;21030;53.912;15.214;2022-09-23T17:39:38;38.20;22.50
34815;DHT22;21030;53.912;15.214;2022-09-23T17:42:05;38.10;22.60
34815;DHT22;21030;53.912;15.214;2022-09-23T17:44:33;38.10;22.60
34815;DHT22;21030;53.912;15.214;2022-09-23T17:47:02;38.10;22.30
34815;DHT22;21030;53.912;15.214;2022-09-23T17:49:31;38.10;22.10
34815;DHT22;21030;53.912;15.214;2022-09-23T17:52:03;38.10;22.40
34815;DHT22;21030;53.912;15.214;2022-09-23T17:54:31;38.10;21.90
34815;DHT22;21030;53.912;15.214;2022-09-23T17:56:59;38.10;22.10
34815;DHT22;21030;53.912;15.214;2022-09-23T17:59:26;38.00;21.90
34815;DHT22;21030;53.912;15.214;2022-09-23T18:01:53;38.10;21.90
34815;DHT22;21030;53.912;15.214;2022-09-23T18:04:21;38.10;22.00
34815;DHT22;21030;53.912;15.214;2022-09-23T18:06:48;38.10;21.90
34815;DHT22;21030;53.912;15.214;2022-09-23T18:09:17;38.10;21.80
34815;DHT22;21030;53.912;15.214;2022-09-23T18:11:45;38.10;21.50
34815;DHT22;21030;53.912;15.214;2022-09-23T18:14:17;38.00;21.70
34815;DHT22;21030;53.912;15.214;2022-09-23T18:16:50;38.00;22.30
34815;DHT22;21030;53.912;15.214;2022-09-23T18:19:20;38.00;22.50
34815;DHT22;21030;53.912;15.214;2022-09-23T18:21:50;37.90;22.50
34815;DHT22;21030;53.912;15.214;2022-09-23T18:24:20;37.80;22.50
34815;DHT22;21030;53.912;15.214;2022-09-23T18:27:03;37.90;22.80
34815;DHT22;21030;53.912;15.214;2022-09-23T18:29:32;37.80;22.60